Terminal Aerodrome Forecast
Issued by NWS Grand Forks, ND

Home | Current Version | Previous Version | Graphics & Text | Print | Product List | Glossary On
Versions: 1 2 3 4 5 6 7 8 9 10 11 12 13 14 15 16 17 18 19 20 21
000
FTUS43 KFGF 261950 AAA
TAFFAR
TAF AMD
KFAR 261950Z 2620/2718 36013G22KT P6SM OVC015
      TEMPO 2620/2622 1SM -SN OVC010
     FM262200 36012KT P6SM OVC010
     FM270500 36008KT P6SM BKN015=

USA.gov is the U.S. government's official web portal to all federal, state and local government web resources and services.